Time;durP1;ratioP1;P1;durP2;ratioP2;P2;SDS_P1;SDS_P2;PMS_P1;PMS_P2;Temp;Humidity;BMP_temperature;BMP_pressure;BME280_temperature;BME280_humidity;BME280_pressure;Samples;Min_cycle;Max_cycle;Signal;HPM_P1;HPM_P2
2022/02/23 00:00:51;;;;;;;21.70;20.70;;;12.60;77.50;;;;;;5026792;28;20038;-79
2022/02/23 00:03:17;;;;;;;21.42;20.42;;;12.70;77.60;;;;;;5012984;28;20486;-79
2022/02/23 00:05:43;;;;;;;22.10;21.02;;;12.70;77.60;;;;;;5012239;28;20049;-79
2022/02/23 00:08:09;;;;;;;22.33;21.27;;;12.60;77.50;;;;;;5010318;28;20529;-79
2022/02/23 00:10:35;;;;;;;22.33;21.33;;;12.60;77.50;;;;;;4995338;28;20034;-79
2022/02/23 00:13:02;;;;;;;22.17;21.17;;;12.70;77.60;;;;;;5013195;28;20052;-79
2022/02/23 00:15:28;;;;;;;21.35;20.35;;;12.60;77.50;;;;;;5012290;28;20411;-79
2022/02/23 00:17:55;;;;;;;21.83;20.83;;;12.60;77.60;;;;;;5045194;28;20034;-79
2022/02/23 00:20:22;;;;;;;21.35;20.30;;;12.60;77.60;;;;;;5007883;28;20053;-79
2022/02/23 00:22:48;;;;;;;22.00;21.00;;;12.60;77.50;;;;;;5026630;28;20057;-79
2022/02/23 00:25:14;;;;;;;21.80;20.80;;;12.60;77.60;;;;;;4991603;28;20030;-79
2022/02/23 00:27:40;;;;;;;21.88;20.88;;;12.60;77.60;;;;;;5013151;28;20034;-78
2022/02/23 00:30:07;;;;;;;21.42;20.42;;;12.60;77.60;;;;;;5008430;28;20045;-78
2022/02/23 00:32:33;;;;;;;20.10;19.20;;;12.60;77.60;;;;;;5012001;28;20040;-79
2022/02/23 00:34:59;;;;;;;22.65;21.25;;;12.60;77.60;;;;;;5043834;28;20030;-79
2022/02/23 00:37:25;;;;;;;20.88;19.88;;;12.60;77.60;;;;;;5025059;28;20030;-79
2022/02/23 00:39:51;;;;;;;20.10;19.17;;;12.60;77.70;;;;;;5011987;28;20038;-79
2022/02/23 00:42:17;;;;;;;20.23;19.33;;;12.60;77.70;;;;;;5011513;28;20053;-79
2022/02/23 00:44:43;;;;;;;21.55;20.55;;;12.60;77.70;;;;;;5026158;28;20034;-79
2022/02/23 00:47:12;;;;;;;22.50;21.17;;;12.60;77.80;;;;;;5043498;28;20049;-79
2022/02/23 00:49:38;;;;;;;20.40;19.40;;;12.60;77.70;;;;;;5008437;28;20037;-79
2022/02/23 00:52:08;;;;;;;21.20;20.17;;;12.50;77.70;;;;;;5044142;28;20040;-79
2022/02/23 00:54:34;;;;;;;21.02;20.02;;;12.50;77.70;;;;;;5011789;28;20031;-79
2022/02/23 00:57:04;;;;;;;22.25;21.20;;;12.50;77.70;;;;;;5009435;28;20036;-79
2022/02/23 00:59:30;;;;;;;20.13;19.23;;;12.50;77.80;;;;;;5023333;28;20121;-79
2022/02/23 01:01:56;;;;;;;19.80;18.90;;;12.40;77.80;;;;;;5043258;28;20056;-79
2022/02/23 01:04:22;;;;;;;20.60;19.60;;;12.40;77.90;;;;;;5008846;28;20030;-79
2022/02/23 01:06:48;;;;;;;21.92;20.65;;;12.40;77.90;;;;;;5008890;28;20069;-79
2022/02/23 01:09:14;;;;;;;20.98;19.92;;;12.40;78.00;;;;;;5011261;28;20041;-79
2022/02/23 01:11:41;;;;;;;21.08;20.08;;;12.40;78.00;;;;;;5011792;28;20038;-79
2022/02/23 01:14:07;;;;;;;20.88;19.88;;;12.30;78.00;;;;;;5011643;28;20041;-79
2022/02/23 01:16:34;;;;;;;19.75;18.80;;;12.30;78.00;;;;;;5007828;28;20037;-78
2022/02/23 01:19:00;;;;;;;20.02;19.13;;;12.30;78.10;;;;;;5012182;28;20045;-79
2022/02/23 01:21:27;;;;;;;20.20;19.30;;;12.30;78.10;;;;;;5010447;28;20391;-79
2022/02/23 01:23:53;;;;;;;20.35;19.45;;;12.30;78.10;;;;;;5007206;28;20049;-79
2022/02/23 01:26:19;;;;;;;20.90;19.75;;;12.30;78.20;;;;;;5011036;28;20033;-79
2022/02/23 01:28:45;;;;;;;20.15;19.25;;;12.20;78.10;;;;;;5009478;28;20042;-79
2022/02/23 01:31:11;;;;;;;20.38;19.42;;;12.20;78.10;;;;;;5028403;28;20037;-78
2022/02/23 01:33:37;;;;;;;21.95;20.92;;;12.20;78.10;;;;;;5042805;28;20030;-79
2022/02/23 01:36:04;;;;;;;20.73;19.73;;;12.20;78.10;;;;;;5009744;28;20073;-79
2022/02/23 01:38:30;;;;;;;21.70;20.63;;;12.20;78.20;;;;;;5043430;28;20042;-79
2022/02/23 01:40:56;;;;;;;20.10;19.20;;;12.10;79.00;;;;;;5006576;28;20372;-79
2022/02/23 01:43:22;;;;;;;20.45;19.30;;;12.10;78.30;;;;;;4990893;28;20029;-79
2022/02/23 01:45:48;;;;;;;21.15;20.13;;;12.10;78.30;;;;;;5042612;28;21846;-79
2022/02/23 01:48:14;;;;;;;20.70;19.60;;;12.10;78.30;;;;;;5010537;28;20478;-79
2022/02/23 01:50:41;;;;;;;20.52;19.60;;;12.10;78.30;;;;;;5010808;28;20086;-79
2022/02/23 01:53:07;;;;;;;21.05;20.05;;;12.10;78.30;;;;;;5009217;28;20081;-79
2022/02/23 01:55:35;;;;;;;21.30;20.30;;;12.10;78.30;;;;;;5008166;28;20026;-79
2022/02/23 01:58:02;;;;;;;20.20;19.30;;;12.10;78.20;;;;;;5009898;28;20064;-79
2022/02/23 02:00:29;;;;;;;21.10;20.10;;;12.10;78.20;;;;;;5010998;28;20037;-79
2022/02/23 02:02:55;;;;;;;21.40;20.40;;;12.10;78.20;;;;;;5012101;28;20490;-79
2022/02/23 02:05:21;;;;;;;22.08;20.98;;;12.10;78.20;;;;;;5041163;28;20025;-79
2022/02/23 02:07:47;;;;;;;21.35;20.27;;;12.00;78.20;;;;;;5018545;28;20519;-79
2022/02/23 02:10:13;;;;;;;20.80;19.80;;;12.00;78.20;;;;;;5026255;28;20029;-79
2022/02/23 02:12:41;;;;;;;20.45;19.55;;;12.00;78.30;;;;;;5012178;28;20022;-79
2022/02/23 02:15:07;;;;;;;20.45;19.48;;;12.00;78.40;;;;;;4991734;28;20029;-79
2022/02/23 02:17:33;;;;;;;20.27;19.38;;;12.00;79.20;;;;;;5025170;28;20038;-79
2022/02/23 02:19:59;;;;;;;20.42;19.50;;;12.00;79.10;;;;;;5007421;28;20045;-79
2022/02/23 02:22:28;;;;;;;20.40;19.50;;;12.00;78.40;;;;;;5016720;28;20407;-79
2022/02/23 02:24:54;;;;;;;20.48;19.55;;;12.00;78.40;;;;;;5040574;28;20447;-79
2022/02/23 02:27:21;;;;;;;21.00;20.00;;;12.00;78.30;;;;;;5010248;28;20029;-79
2022/02/23 02:29:47;;;;;;;21.00;20.00;;;12.00;78.30;;;;;;5008499;28;20509;-79
2022/02/23 02:32:14;;;;;;;20.45;19.52;;;12.00;78.20;;;;;;5041619;28;20034;-79
2022/02/23 02:34:40;;;;;;;20.60;19.67;;;12.00;78.30;;;;;;5008148;28;20041;-79
2022/02/23 02:37:06;;;;;;;20.70;19.50;;;12.00;78.30;;;;;;5041108;28;20026;-78
2022/02/23 02:39:34;;;;;;;21.23;20.23;;;12.00;78.30;;;;;;5010404;28;20383;-79
2022/02/23 02:42:00;;;;;;;21.10;20.10;;;12.00;78.30;;;;;;5009301;28;20081;-78
2022/02/23 02:44:26;;;;;;;19.95;19.05;;;12.00;78.30;;;;;;4991322;28;20042;-79
2022/02/23 02:46:53;;;;;;;20.58;19.67;;;12.00;78.30;;;;;;5006936;28;20034;-79
2022/02/23 02:49:19;;;;;;;20.33;19.42;;;12.00;78.40;;;;;;5009338;28;20037;-78
2022/02/23 02:51:45;;;;;;;20.27;19.38;;;12.00;78.40;;;;;;4994471;28;20033;-79
2022/02/23 02:54:11;;;;;;;20.98;19.88;;;12.00;78.40;;;;;;4996057;28;20042;-79
2022/02/23 02:56:38;;;;;;;20.27;19.38;;;12.00;78.40;;;;;;5013359;28;20048;-79
2022/02/23 02:59:05;;;;;;;20.17;19.17;;;12.00;78.40;;;;;;5010230;28;20034;-79
2022/02/23 03:01:32;;;;;;;19.95;19.05;;;12.00;78.40;;;;;;5012616;28;20034;-79
2022/02/23 03:03:58;;;;;;;19.50;18.60;;;12.00;78.40;;;;;;5039345;28;20367;-79
2022/02/23 03:06:24;;;;;;;21.38;20.25;;;12.00;78.40;;;;;;5010259;28;20030;-79
2022/02/23 03:08:51;;;;;;;20.92;19.92;;;12.00;78.40;;;;;;5006618;28;20032;-79
2022/02/23 03:11:17;;;;;;;20.77;19.77;;;12.00;78.40;;;;;;5012387;28;20033;-79
2022/02/23 03:13:43;;;;;;;20.60;19.65;;;12.00;78.40;;;;;;4995495;28;20033;-79
2022/02/23 03:16:10;;;;;;;21.23;20.23;;;12.00;78.40;;;;;;4995678;28;20427;-79
2022/02/23 03:18:36;;;;;;;21.27;20.27;;;12.00;78.40;;;;;;5011710;28;20049;-79
2022/02/23 03:21:03;;;;;;;21.98;20.50;;;11.90;78.30;;;;;;4992802;28;20033;-80
2022/02/23 03:23:29;;;;;;;20.33;19.33;;;12.00;78.40;;;;;;5009314;28;20038;-79
2022/02/23 03:25:55;;;;;;;19.98;19.08;;;12.00;78.40;;;;;;5011797;28;20037;-79
2022/02/23 03:28:21;;;;;;;20.00;19.10;;;11.90;78.30;;;;;;5005790;28;20026;-79
2022/02/23 03:30:47;;;;;;;20.05;19.15;;;11.90;78.30;;;;;;4975925;28;20038;-79
2022/02/23 03:33:14;;;;;;;20.75;19.80;;;11.90;78.30;;;;;;5011057;28;20361;-79
2022/02/23 03:35:41;;;;;;;20.75;19.75;;;11.90;78.30;;;;;;4993230;28;20041;-79
2022/02/23 03:38:07;;;;;;;21.13;20.13;;;11.90;78.30;;;;;;5045478;28;20490;-78
2022/02/23 03:40:34;;;;;;;20.92;19.92;;;11.90;78.40;;;;;;5000508;28;20034;-79
2022/02/23 03:43:00;;;;;;;20.83;19.85;;;11.90;78.40;;;;;;5028285;28;20053;-79
2022/02/23 03:45:26;;;;;;;21.98;20.98;;;11.90;78.40;;;;;;4995747;28;20396;-79
2022/02/23 03:47:52;;;;;;;21.70;20.70;;;11.90;78.40;;;;;;5011272;28;20050;-78
2022/02/23 03:50:19;;;;;;;21.33;20.13;;;11.90;78.40;;;;;;5013384;28;20041;-79
2022/02/23 03:52:45;;;;;;;20.38;19.48;;;11.90;78.40;;;;;;4994242;28;20030;-79
2022/02/23 03:55:11;;;;;;;21.73;20.73;;;11.90;78.40;;;;;;4996098;28;20022;-79
2022/02/23 03:57:37;;;;;;;20.77;19.80;;;11.90;78.50;;;;;;5024470;28;20484;-79
2022/02/23 04:00:04;;;;;;;22.20;21.10;;;11.90;78.50;;;;;;5008193;28;20030;-79
2022/02/23 04:02:30;;;;;;;20.15;19.25;;;11.80;78.40;;;;;;5045009;28;20095;-78
2022/02/23 04:04:56;;;;;;;22.10;20.90;;;11.80;78.40;;;;;;4978134;28;20399;-81
2022/02/23 04:07:23;;;;;;;21.40;20.10;;;11.80;78.70;;;;;;5011533;28;20041;-81
2022/02/23 04:09:49;;;;;;;20.15;19.25;;;11.80;78.40;;;;;;5027459;28;20034;-81
2022/02/23 04:12:15;;;;;;;21.08;20.08;;;11.80;78.50;;;;;;5010160;28;20041;-82
2022/02/23 04:14:42;;;;;;;21.83;20.83;;;11.80;78.40;;;;;;4997313;28;20045;-82
2022/02/23 04:17:08;;;;;;;20.92;19.92;;;11.80;78.40;;;;;;5011543;28;20057;-81
2022/02/23 04:19:34;;;;;;;21.02;20.02;;;11.80;78.40;;;;;;5008736;28;20025;-81
2022/02/23 04:22:01;;;;;;;21.35;20.35;;;11.80;78.40;;;;;;5027492;28;20046;-81
2022/02/23 04:24:27;;;;;;;21.67;20.67;;;11.80;78.40;;;;;;5026068;28;20471;-81
2022/02/23 04:26:53;;;;;;;22.15;21.15;;;11.80;78.40;;;;;;4994130;28;20089;-81
2022/02/23 04:29:19;;;;;;;22.17;21.02;;;11.80;79.10;;;;;;5026973;28;20049;-82
2022/02/23 04:31:45;;;;;;;21.58;20.33;;;11.80;78.40;;;;;;5011517;28;20034;-81
2022/02/23 04:34:11;;;;;;;20.92;19.92;;;11.80;78.40;;;;;;5011834;28;20045;-81
2022/02/23 04:36:37;;;;;;;21.00;20.00;;;11.80;78.40;;;;;;5043481;28;20034;-82
2022/02/23 04:39:04;;;;;;;21.00;20.00;;;11.70;78.40;;;;;;5021913;28;20478;-82
2022/02/23 04:41:30;;;;;;;22.23;21.13;;;11.70;78.40;;;;;;5012634;28;20398;-81
2022/02/23 04:43:57;;;;;;;20.80;19.80;;;11.70;78.40;;;;;;5008544;28;20502;-81
2022/02/23 04:46:23;;;;;;;20.55;19.63;;;11.70;78.40;;;;;;5022427;28;20057;-81
2022/02/23 04:48:51;;;;;;;20.95;19.88;;;11.70;78.50;;;;;;5019640;28;20046;-81
2022/02/23 04:51:19;;;;;;;20.75;19.75;;;11.70;78.40;;;;;;5011260;28;20025;-81
2022/02/23 04:53:46;;;;;;;19.15;18.25;;;11.70;78.40;;;;;;5008272;28;20034;-82
2022/02/23 04:56:12;;;;;;;20.90;19.90;;;11.70;78.40;;;;;;4991793;28;20056;-81
2022/02/23 04:58:38;;;;;;;20.40;19.50;;;11.70;78.40;;;;;;5020818;28;20034;-81
2022/02/23 05:01:05;;;;;;;21.10;20.02;;;11.60;78.30;;;;;;5010098;28;20030;-82
2022/02/23 05:03:31;;;;;;;20.35;19.40;;;11.60;78.60;;;;;;5011347;28;20046;-82
2022/02/23 05:05:59;;;;;;;19.27;18.38;;;11.60;78.40;;;;;;5010093;28;20498;-82
2022/02/23 05:08:25;;;;;;;19.85;18.80;;;11.50;78.40;;;;;;5011117;28;20056;-82
2022/02/23 05:10:52;;;;;;;19.58;18.60;;;11.50;78.50;;;;;;4993306;28;20041;-82
2022/02/23 05:13:18;;;;;;;19.52;18.52;;;11.50;78.60;;;;;;5043274;28;20037;-82
2022/02/23 05:15:44;;;;;;;19.25;18.35;;;11.50;78.50;;;;;;5043594;28;20034;-82
2022/02/23 05:18:10;;;;;;;19.42;18.38;;;11.50;78.40;;;;;;5010169;28;20034;-82
2022/02/23 05:20:36;;;;;;;19.40;18.48;;;11.50;78.40;;;;;;5011783;28;20042;-82
2022/02/23 05:23:03;;;;;;;19.80;18.88;;;11.50;78.40;;;;;;5010110;28;20057;-82
2022/02/23 05:25:29;;;;;;;19.02;18.13;;;11.50;78.40;;;;;;5012061;28;20391;-82
2022/02/23 05:27:55;;;;;;;19.02;18.13;;;11.50;78.40;;;;;;5011280;28;20053;-82
2022/02/23 05:30:21;;;;;;;19.00;18.10;;;11.40;78.40;;;;;;5010060;28;20041;-82
2022/02/23 05:32:48;;;;;;;19.10;18.20;;;11.40;78.50;;;;;;5011380;28;20034;-82
2022/02/23 05:35:14;;;;;;;19.45;18.45;;;11.40;78.50;;;;;;5012031;28;20026;-82
2022/02/23 05:37:40;;;;;;;19.50;18.50;;;11.40;78.80;;;;;;5010186;28;20033;-82
2022/02/23 05:40:07;;;;;;;19.40;18.48;;;11.40;78.60;;;;;;5010766;28;20037;-82
2022/02/23 05:42:33;;;;;;;19.80;18.90;;;11.40;78.50;;;;;;4994226;28;20410;-82
2022/02/23 05:44:59;;;;;;;19.85;18.95;;;11.50;78.60;;;;;;5043246;28;20041;-82
2022/02/23 05:47:26;;;;;;;19.92;18.90;;;11.50;78.60;;;;;;5005446;28;20052;-82
2022/02/23 05:49:52;;;;;;;18.98;17.98;;;11.50;78.50;;;;;;5011839;28;20029;-82
2022/02/23 05:52:21;;;;;;;18.48;17.58;;;11.50;78.40;;;;;;5008550;28;20030;-82
2022/02/23 05:54:48;;;;;;;18.80;17.90;;;11.50;78.40;;;;;;5025950;28;20042;-82
2022/02/23 05:57:14;;;;;;;19.52;18.63;;;11.50;78.40;;;;;;5010110;28;20060;-82
2022/02/23 05:59:41;;;;;;;20.17;19.17;;;11.50;78.30;;;;;;5010811;28;20033;-82
2022/02/23 06:02:07;;;;;;;19.27;18.38;;;11.50;78.40;;;;;;4993057;28;20042;-82
2022/02/23 06:04:36;;;;;;;18.95;18.05;;;11.50;78.40;;;;;;5042053;28;20052;-82
2022/02/23 06:07:03;;;;;;;19.50;18.60;;;11.40;78.50;;;;;;5011486;28;20034;-82
2022/02/23 06:09:29;;;;;;;19.17;18.27;;;11.40;78.50;;;;;;5008574;28;20030;-82
2022/02/23 06:11:55;;;;;;;18.83;17.92;;;11.50;78.50;;;;;;5042091;28;20030;-82
2022/02/23 06:14:21;;;;;;;19.48;18.58;;;11.50;78.40;;;;;;5021028;28;20061;-82
2022/02/23 06:16:47;;;;;;;20.00;19.10;;;11.50;78.40;;;;;;5009072;28;20042;-82
2022/02/23 06:19:13;;;;;;;19.45;18.55;;;11.50;78.40;;;;;;5008834;28;20042;-82
2022/02/23 06:21:39;;;;;;;20.10;19.10;;;11.50;78.50;;;;;;5026677;28;20038;-81
2022/02/23 06:24:06;;;;;;;19.88;18.98;;;11.50;78.60;;;;;;5042971;28;20403;-82
2022/02/23 06:26:32;;;;;;;21.10;20.10;;;11.50;78.50;;;;;;5009918;28;20040;-82
2022/02/23 06:28:58;;;;;;;20.02;19.13;;;11.50;78.60;;;;;;5016412;28;20041;-83
2022/02/23 06:31:24;;;;;;;19.20;18.30;;;11.50;78.60;;;;;;5045270;28;20033;-82
2022/02/23 06:33:50;;;;;;;20.15;19.15;;;11.50;78.60;;;;;;5025144;28;20033;-83
2022/02/23 06:36:16;;;;;;;19.73;18.83;;;11.50;78.60;;;;;;4980551;28;20050;-83
2022/02/23 06:38:43;;;;;;;20.63;19.20;;;11.50;78.50;;;;;;5046305;28;20048;-83
2022/02/23 06:41:12;;;;;;;19.70;18.80;;;11.50;78.50;;;;;;5004885;28;20529;-83
2022/02/23 06:43:38;;;;;;;19.67;18.77;;;11.50;78.50;;;;;;5014436;28;20053;-83
2022/02/23 06:46:04;;;;;;;19.33;18.42;;;11.50;78.50;;;;;;5044770;28;20406;-83
2022/02/23 06:48:32;;;;;;;21.05;19.85;;;11.50;78.50;;;;;;5012768;28;20030;-83
2022/02/23 06:50:58;;;;;;;20.15;18.98;;;11.50;78.40;;;;;;5043856;28;20042;-83
2022/02/23 06:53:24;;;;;;;18.25;17.45;;;11.40;78.40;;;;;;5014606;28;20033;-82
2022/02/23 06:55:52;;;;;;;19.80;18.80;;;11.40;78.50;;;;;;5012390;28;20032;-82
2022/02/23 06:58:18;;;;;;;19.75;18.75;;;11.40;78.50;;;;;;5012147;28;20033;-82
2022/02/23 07:00:45;;;;;;;19.10;18.20;;;11.40;79.30;;;;;;5044886;28;20037;-82
2022/02/23 07:03:11;;;;;;;19.48;18.17;;;11.40;78.50;;;;;;5013531;28;20029;-83
2022/02/23 07:05:37;;;;;;;20.63;19.33;;;11.40;79.20;;;;;;4999022;28;20382;-82
2022/02/23 07:08:07;;;;;;;20.38;19.38;;;11.40;78.50;;;;;;5014217;28;20394;-82
2022/02/23 07:10:34;;;;;;;19.17;18.27;;;11.40;78.50;;;;;;5028380;28;20387;-83
2022/02/23 07:13:00;;;;;;;19.48;18.58;;;11.40;78.50;;;;;;5045886;28;20046;-83
2022/02/23 07:15:27;;;;;;;19.13;18.23;;;11.40;78.50;;;;;;5044572;28;20395;-83
2022/02/23 07:17:53;;;;;;;19.30;18.40;;;11.40;78.50;;;;;;5011205;28;20053;-83
2022/02/23 07:20:19;;;;;;;18.55;17.67;;;11.30;78.40;;;;;;5012911;28;20030;-81
2022/02/23 07:22:45;;;;;;;18.83;17.92;;;11.30;78.50;;;;;;5021640;28;20046;-82
2022/02/23 07:25:12;;;;;;;18.88;17.98;;;11.30;78.40;;;;;;5027827;28;20049;-86
2022/02/23 07:27:38;;;;;;;19.83;18.85;;;11.30;78.40;;;;;;5008652;28;20038;-86
2022/02/23 07:30:06;;;;;;;19.40;18.50;;;11.30;78.50;;;;;;4995638;28;20380;-89
2022/02/23 07:32:33;;;;;;;20.35;19.25;;;11.30;78.50;;;;;;5013491;28;20026;-84
2022/02/23 07:35:00;;;;;;;19.58;18.58;;;11.30;78.50;;;;;;4997110;28;20068;-86
2022/02/23 07:37:26;;;;;;;19.48;18.58;;;11.30;78.50;;;;;;5043995;28;20022;-90
2022/02/23 07:39:59;;;;;;;19.63;18.48;;;11.30;78.50;;;;;;5027513;28;20041;-89
2022/02/23 07:42:25;;;;;;;19.23;18.33;;;11.30;78.40;;;;;;5011760;28;20034;-81
2022/02/23 07:44:52;;;;;;;18.92;18.02;;;11.30;78.40;;;;;;5014871;28;20402;-81
2022/02/23 07:47:18;;;;;;;20.17;19.17;;;11.30;78.40;;;;;;5008678;28;20509;-81
2022/02/23 07:49:49;;;;;;;18.52;17.63;;;11.30;78.30;;;;;;5002798;28;20026;-83
2022/02/23 07:52:16;;;;;;;19.85;18.95;;;11.30;78.30;;;;;;5012729;28;20042;-82
2022/02/23 07:54:42;;;;;;;20.73;19.67;;;11.30;78.30;;;;;;5012775;28;20034;-81
2022/02/23 07:57:09;;;;;;;20.70;19.70;;;11.30;78.40;;;;;;5033324;28;20050;-82
2022/02/23 07:59:35;;;;;;;20.55;19.63;;;11.30;78.30;;;;;;5010545;28;20026;-82
2022/02/23 08:02:01;;;;;;;19.10;18.20;;;11.30;78.30;;;;;;5013105;28;20045;-81
2022/02/23 08:04:28;;;;;;;20.50;19.50;;;11.30;78.30;;;;;;5013529;28;20038;-80
2022/02/23 08:06:55;;;;;;;21.33;20.00;;;11.40;78.30;;;;;;5028110;28;20033;-81
2022/02/23 08:09:22;;;;;;;20.45;19.55;;;11.40;78.30;;;;;;5045650;28;20045;-80
2022/02/23 08:11:48;;;;;;;21.42;20.33;;;11.40;78.20;;;;;;5008296;28;20732;-81
2022/02/23 08:14:15;;;;;;;20.20;19.30;;;11.40;78.20;;;;;;5042385;28;20037;-81
2022/02/23 08:19:36;;;;;;;21.58;20.48;;;11.30;78.20;;;;;;5031085;28;20041;-82
2022/02/23 08:22:03;;;;;;;20.70;19.73;;;11.30;78.20;;;;;;5025393;28;20034;-82
2022/02/23 08:24:30;;;;;;;20.50;19.60;;;11.30;78.30;;;;;;5045429;28;20042;-82
2022/02/23 08:26:57;;;;;;;21.38;20.15;;;11.40;78.30;;;;;;5025126;28;20029;-82
2022/02/23 08:29:24;;;;;;;21.50;20.35;;;11.40;78.20;;;;;;5011773;28;20390;-83
2022/02/23 08:31:50;;;;;;;21.33;20.33;;;11.40;78.10;;;;;;5024876;28;20037;-82
2022/02/23 08:34:17;;;;;;;19.35;18.45;;;11.50;78.00;;;;;;4998035;28;20042;-86
2022/02/23 08:36:44;;;;;;;20.17;19.17;;;11.50;77.90;;;;;;5020253;28;20038;-86
2022/02/23 08:39:10;;;;;;;20.95;19.80;;;11.50;77.90;;;;;;4996084;28;20042;-84
2022/02/23 08:41:37;;;;;;;20.33;19.42;;;11.50;77.90;;;;;;4994393;28;20042;-83
2022/02/23 08:44:06;;;;;;;19.42;18.52;;;11.50;78.00;;;;;;5008691;28;20048;-85
2022/02/23 08:46:42;;;;;;;20.55;19.55;;;11.50;78.00;;;;;;5008832;28;20045;-87
2022/02/23 08:49:09;;;;;;;20.48;19.52;;;11.60;77.90;;;;;;5010009;28;20042;-84
2022/02/23 08:51:36;;;;;;;20.00;19.10;;;11.60;77.80;;;;;;4995222;28;20026;-84
2022/02/23 08:54:02;;;;;;;22.70;21.30;;;11.50;77.70;;;;;;5023923;28;20022;-84
2022/02/23 08:56:29;;;;;;;21.02;20.02;;;11.60;77.80;;;;;;5011578;28;20030;-86
2022/02/23 08:58:55;;;;;;;21.25;20.25;;;11.50;77.80;;;;;;5008128;28;20030;-87
2022/02/23 09:01:22;;;;;;;23.40;22.05;;;11.50;77.80;;;;;;5008105;28;20038;-87
2022/02/23 09:03:48;;;;;;;21.92;20.92;;;11.50;77.80;;;;;;4993288;28;20058;-87
2022/02/23 09:06:14;;;;;;;21.42;20.42;;;11.50;78.00;;;;;;5010246;28;20038;-82
2022/02/23 09:08:40;;;;;;;21.10;20.10;;;11.60;78.00;;;;;;5009961;28;20056;-86
2022/02/23 09:11:06;;;;;;;22.40;21.10;;;11.60;77.70;;;;;;5017473;28;20479;-89
2022/02/23 09:13:32;;;;;;;22.02;20.92;;;11.60;77.60;;;;;;5009977;28;20036;-89
2022/02/23 09:15:58;;;;;;;20.50;19.50;;;11.70;77.60;;;;;;5009976;28;20029;-88
2022/02/23 09:18:25;;;;;;;20.30;19.40;;;11.70;77.50;;;;;;5010761;28;20036;-87
2022/02/23 09:20:51;;;;;;;20.73;19.73;;;11.70;77.50;;;;;;5008565;28;20387;-90
2022/02/23 09:23:19;;;;;;;20.58;19.63;;;11.70;77.40;;;;;;5010974;28;20072;-88
2022/02/23 09:25:45;;;;;;;20.27;19.38;;;11.70;77.50;;;;;;5025046;28;20037;-89
2022/02/23 09:28:11;;;;;;;21.25;20.25;;;11.70;77.50;;;;;;5025913;28;20022;-88
2022/02/23 09:30:39;;;;;;;21.98;20.98;;;11.70;77.40;;;;;;5006923;28;20164;-88
2022/02/23 09:33:05;;;;;;;21.73;20.52;;;11.70;77.30;;;;;;5011328;28;20038;-87
2022/02/23 09:35:33;;;;;;;19.42;18.52;;;11.80;77.40;;;;;;4994324;28;20056;-89
2022/02/23 09:37:59;;;;;;;21.48;20.48;;;11.80;77.30;;;;;;5007545;28;20037;-87
2022/02/23 09:40:25;;;;;;;21.15;20.10;;;11.80;77.20;;;;;;5042179;28;20041;-88
2022/02/23 09:42:51;;;;;;;20.65;19.73;;;11.90;77.20;;;;;;4992329;28;20053;-89
2022/02/23 09:45:17;;;;;;;22.17;21.10;;;12.00;77.10;;;;;;5010273;28;20045;-89
2022/02/23 09:47:43;;;;;;;21.45;20.45;;;12.00;77.10;;;;;;4992309;28;20037;-88
2022/02/23 09:50:18;;;;;;;21.52;20.52;;;12.00;76.90;;;;;;5043378;28;20038;-89
2022/02/23 09:52:44;;;;;;;21.98;20.75;;;12.10;77.00;;;;;;5007817;28;20037;-90
2022/02/23 09:55:10;;;;;;;23.98;22.35;;;12.10;76.90;;;;;;4978496;28;20030;-88
2022/02/23 09:57:37;;;;;;;20.42;19.42;;;12.20;76.80;;;;;;5007652;28;20038;-87
2022/02/23 10:00:05;;;;;;;22.50;21.50;;;12.20;76.70;;;;;;5008540;28;20030;-87
2022/02/23 10:02:35;;;;;;;21.95;20.95;;;12.20;76.70;;;;;;5041798;28;20056;-89
2022/02/23 10:05:02;;;;;;;21.27;20.27;;;12.20;76.80;;;;;;4991058;28;20054;-89
2022/02/23 10:07:30;;;;;;;21.63;20.63;;;12.20;76.80;;;;;;4977626;28;20037;-89
2022/02/23 10:09:57;;;;;;;21.60;20.60;;;12.30;76.60;;;;;;5038160;28;20038;-88
2022/02/23 10:12:26;;;;;;;21.92;20.92;;;12.30;76.50;;;;;;5007765;28;20505;-88
2022/02/23 10:15:12;;;;;;;22.52;21.27;;;12.30;76.40;;;;;;5042084;28;20026;-84
2022/02/23 10:17:48;;;;;;;22.23;21.23;;;12.30;76.40;;;;;;5009170;28;20034;-84
2022/02/23 10:20:26;;;;;;;22.73;21.58;;;12.40;76.30;;;;;;5008710;28;20033;-84
2022/02/23 10:23:01;;;;;;;21.75;20.65;;;12.50;76.20;;;;;;5011928;28;20038;-84
2022/02/23 10:25:31;;;;;;;21.20;20.20;;;12.50;76.20;;;;;;5010827;28;20040;-84
2022/02/23 10:28:09;;;;;;;22.83;21.77;;;12.50;76.20;;;;;;5010330;28;20030;-84
2022/02/23 10:30:55;;;;;;;21.98;20.98;;;12.50;76.00;;;;;;5022067;28;20037;-83
2022/02/23 10:33:26;;;;;;;21.83;20.83;;;12.60;76.00;;;;;;5017872;28;20390;-84
2022/02/23 10:36:06;;;;;;;21.67;20.67;;;12.70;76.00;;;;;;5007696;28;20536;-84
2022/02/23 10:38:42;;;;;;;23.38;22.27;;;12.70;75.80;;;;;;5040464;28;20022;-84
2022/02/23 10:41:32;;;;;;;23.17;22.08;;;12.80;75.80;;;;;;5013378;28;20030;-88
2022/02/23 10:43:58;;;;;;;23.80;22.60;;;12.90;75.70;;;;;;5001276;28;20053;-88
2022/02/23 10:46:25;;;;;;;1999.90;999.90;;;12.90;75.60;;;;;;5023198;28;20030;-88
2022/02/23 10:48:55;;;;;;;1505.80;755.53;;;12.80;75.50;;;;;;5009629;28;20046;-87
2022/02/23 10:51:27;;;;;;;1999.90;999.90;;;12.80;75.80;;;;;;5005148;28;20041;-82
2022/02/23 10:53:53;;;;;;;23.02;21.95;;;12.70;75.80;;;;;;5012058;28;20029;-85
2022/02/23 10:56:30;;;;;;;1999.90;999.90;;;12.80;75.90;;;;;;5017661;28;20034;-89
2022/02/23 10:59:05;;;;;;;1999.90;999.90;;;12.90;75.90;;;;;;5005271;28;20061;-86
2022/02/23 11:01:31;;;;;;;1999.90;999.90;;;12.90;75.60;;;;;;5008708;28;20042;-87
2022/02/23 11:03:57;;;;;;;1999.90;999.90;;;13.00;75.50;;;;;;5008657;28;20042;-86
2022/02/23 11:06:24;;;;;;;1999.90;999.90;;;13.20;75.30;;;;;;5003476;28;20034;-88
2022/02/23 11:08:53;;;;;;;1999.90;999.90;;;13.40;74.90;;;;;;5017447;28;20026;-88
2022/02/23 11:11:20;;;;;;;1999.90;999.90;;;13.50;74.60;;;;;;5042492;28;20471;-89
2022/02/23 11:13:48;;;;;;;1999.90;999.90;;;13.60;74.30;;;;;;5009338;28;20395;-88
2022/02/23 11:16:14;;;;;;;1999.90;999.90;;;13.60;74.40;;;;;;5011695;28;20511;-85
2022/02/23 11:18:41;;;;;;;1999.90;999.90;;;13.70;74.20;;;;;;4994662;28;20033;-84
2022/02/23 11:21:09;;;;;;;1999.90;999.90;;;13.70;74.00;;;;;;5010398;28;20049;-88
2022/02/23 11:23:37;;;;;;;1999.90;999.90;;;13.80;73.80;;;;;;5010370;28;20398;-88
2022/02/23 11:26:03;;;;;;;1999.90;999.90;;;13.90;73.80;;;;;;5012691;28;20045;-87
2022/02/23 11:28:32;;;;;;;1999.90;999.90;;;14.00;73.70;;;;;;5016478;28;20029;-87
2022/02/23 11:31:06;;;;;;;1999.90;999.90;;;14.00;73.50;;;;;;5011889;28;20033;-89
2022/02/23 11:33:59;;;;;;;1999.90;999.90;;;14.00;73.50;;;;;;5014562;28;20352;-84
2022/02/23 11:36:44;;;;;;;1999.90;999.90;;;14.10;73.60;;;;;;5038796;28;20502;-86
2022/02/23 11:39:21;;;;;;;1999.90;999.90;;;14.20;73.40;;;;;;4999765;28;20030;-86
2022/02/23 11:41:54;;;;;;;1999.90;999.90;;;14.30;73.10;;;;;;5013366;28;20029;-87
2022/02/23 11:44:27;;;;;;;1999.90;999.90;;;14.40;72.90;;;;;;4996531;28;20479;-90
2022/02/23 11:46:56;;;;;;;1999.90;999.90;;;14.50;72.80;;;;;;5044005;28;20046;-89
2022/02/23 11:49:31;;;;;;;1999.90;999.90;;;14.50;72.60;;;;;;5012016;28;20030;-86
2022/02/23 11:52:07;;;;;;;1999.90;999.90;;;14.70;72.70;;;;;;5027594;28;20026;-88
2022/02/23 11:54:54;;;;;;;1999.90;999.90;;;14.70;72.50;;;;;;5003024;28;20037;-87
2022/02/23 11:57:40;;;;;;;1999.90;999.90;;;14.80;72.60;;;;;;5001881;28;20061;-86
2022/02/23 12:00:28;;;;;;;1999.90;999.90;;;14.80;72.60;;;;;;5001360;28;20037;-88
2022/02/23 12:03:09;;;;;;;1999.90;999.90;;;14.70;72.50;;;;;;5003772;28;20419;-84
2022/02/23 12:05:43;;;;;;;1999.90;999.90;;;14.60;72.50;;;;;;5006180;28;20030;-83
2022/02/23 12:08:34;;;;;;;1999.90;999.90;;;14.60;72.80;;;;;;5010816;28;20037;-83
2022/02/23 12:11:13;;;;;;;1999.90;999.90;;;14.60;72.90;;;;;;5011119;28;20034;-83
2022/02/23 12:13:51;;;;;;;1999.90;999.90;;;14.70;73.00;;;;;;5012008;28;20081;-83
2022/02/23 12:16:17;;;;;;;1999.90;999.90;;;14.90;72.90;;;;;;5009795;28;20049;-83
2022/02/23 12:18:47;;;;;;;1999.90;999.90;;;15.20;72.50;;;;;;5011399;28;20041;-83
2022/02/23 12:21:13;;;;;;;1999.90;999.90;;;15.50;71.90;;;;;;5008535;28;20033;-83
2022/02/23 12:23:40;;;;;;;1999.90;999.90;;;15.70;71.40;;;;;;5008526;28;20045;-83
2022/02/23 12:26:11;;;;;;;1999.90;999.90;;;15.80;71.30;;;;;;5011663;28;20045;-83
2022/02/23 12:28:38;;;;;;;1999.90;999.90;;;16.10;71.10;;;;;;5011355;28;20033;-83